الصفحة الرئيسية
METAR-TAF:

METAR-TAF

مطار :

الرباط, المغرب

مطار الرباط سلا

دائرة عرض: 34-03N, خط طول: 006-46W, ارتفاع: 84 متر

مراقبة الطقس الحالي

تاريخ ووقت الإصدار 19 دقيقة قبل الساعة 21:30UTC
ريح 1 عقدة من الشرق/الجنوب الشرقي
درجة الحرارة 8°درجة مئوية
الرطوبة 87%
ضغط 1018 hPa
الرؤية 10 كم أو أكثر
الغيوم لا تقل 1500 م ولا وجود لمزنة ركامية السحاب الأسود

METAR: GMME 182130Z 12001KT CAVOK 08/06 Q1018 NOSIG

زمن: 21:49 (21:49 UTC)

توقعات

تاريخ ووقت الإصدار 4ساعات و 49 دقيقة قبل الساعة 17:00UTC
التوقعات صالحة من18 الساعة 18 UTC إلى 19 الساعة 24 UTC
ريح 6 عقدة من الشمال/الشمال الغربي
الرؤية: 8000 متر
غيوم متفرقة على ارتفاع 1300 قدم
غيوم متفرقة على ارتفاع 1500 قدم
نظرية الاحتمالات 30% :
مؤقت
من 19 الساعة 03 UTC إلى 19 الساعة 07 UTC
ريح 2 عقدةمن اتجاهات متغيرة
الرؤية: 4000 متر
غيوم مفككة على ارتفاع 800 قدم
غشاء

TAF: GMME 181700Z 1818/1924 34006KT 8000 SCT013 SCT015 PROB30 TEMPO 1903/1907 VRB02KT 4000 BR BKN008

أرصاد الطقس والتوقعات من أكثر من 4000 مطار (تقارير الطقس للمطار METAR والتنبؤ بالطقس بالمطارTAF).

المحطات المتاحة هي النقط الصفراء والحمراء على الخريطة.

حرك المؤشر فوق النقطة لمعرفة اسم المحطة.

ثم انقر لمعرفة أرصاد وتوقعات الطقس.

لتغيير الخارطة: اضغط على الأزرار الخضراء مع رمز الصليب الأسود للتكبير. على الزر الأخضر مع شرطة للتصغير، أو على الأسهم الخضراء للخرائط المجاورة.


METAR-TAF: